sensor_id;sensor_type;location;lat;lon;timestamp;pressure;altitude;pressure_sealevel;temperature;humidity
76605;BME280;65496;50.978;16.998;2022-12-18T00:01:05;101742.56;;;21.16;40.31
76605;BME280;65496;50.978;16.998;2022-12-18T00:03:43;101755.19;;;21.17;40.35
76605;BME280;65496;50.978;16.998;2022-12-18T00:06:09;101753.59;;;21.16;40.48
76605;BME280;65496;50.978;16.998;2022-12-18T00:08:35;101741.56;;;21.12;40.58
76605;BME280;65496;50.978;16.998;2022-12-18T00:11:10;101743.06;;;21.18;40.44
76605;BME280;65496;50.978;16.998;2022-12-18T00:13:37;101745.81;;;21.18;40.44
76605;BME280;65496;50.978;16.998;2022-12-18T00:16:04;101742.25;;;21.17;40.49
76605;BME280;65496;50.978;16.998;2022-12-18T00:18:32;101735.59;;;21.18;40.56
76605;BME280;65496;50.978;16.998;2022-12-18T00:20:59;101741.41;;;21.17;40.33
76605;BME280;65496;50.978;16.998;2022-12-18T00:23:27;101755.69;;;21.19;40.50
76605;BME280;65496;50.978;16.998;2022-12-18T00:25:53;101754.88;;;21.18;40.53
76605;BME280;65496;50.978;16.998;2022-12-18T00:28:19;101752.06;;;21.10;40.68
76605;BME280;65496;50.978;16.998;2022-12-18T00:30:45;101772.22;;;21.19;40.69
76605;BME280;65496;50.978;16.998;2022-12-18T00:33:11;101773.34;;;21.18;40.58
76605;BME280;65496;50.978;16.998;2022-12-18T00:35:37;101779.69;;;21.18;40.67
76605;BME280;65496;50.978;16.998;2022-12-18T00:38:03;101776.94;;;21.18;40.75
76605;BME280;65496;50.978;16.998;2022-12-18T00:40:30;101773.34;;;21.18;40.60
76605;BME280;65496;50.978;16.998;2022-12-18T00:42:57;101777.75;;;21.19;40.55
76605;BME280;65496;50.978;16.998;2022-12-18T00:45:28;101780.50;;;21.19;40.59
76605;BME280;65496;50.978;16.998;2022-12-18T00:47:55;101777.88;;;21.14;40.64
76605;BME280;65496;50.978;16.998;2022-12-18T00:50:23;101786.00;;;21.19;40.71
76605;BME280;65496;50.978;16.998;2022-12-18T00:52:50;101792.63;;;21.18;40.66
76605;BME280;65496;50.978;16.998;2022-12-18T00:55:16;101801.19;;;21.16;40.55
76605;BME280;65496;50.978;16.998;2022-12-18T00:57:42;101804.47;;;21.18;40.55
76605;BME280;65496;50.978;16.998;2022-12-18T01:00:11;101809.97;;;21.18;40.55
76605;BME280;65496;50.978;16.998;2022-12-18T01:02:39;101813.03;;;21.17;40.35
76605;BME280;65496;50.978;16.998;2022-12-18T01:05:05;101810.44;;;21.12;40.34
76605;BME280;65496;50.978;16.998;2022-12-18T01:07:32;101817.41;;;21.18;40.36
76605;BME280;65496;50.978;16.998;2022-12-18T01:09:58;101823.75;;;21.18;40.45
76605;BME280;65496;50.978;16.998;2022-12-18T01:12:24;101833.94;;;21.18;40.42
76605;BME280;65496;50.978;16.998;2022-12-18T01:14:50;101838.63;;;21.17;40.48
76605;BME280;65496;50.978;16.998;2022-12-18T01:17:16;101842.22;;;21.18;40.27
76605;BME280;65496;50.978;16.998;2022-12-18T01:19:42;101833.13;;;21.17;40.32
76605;BME280;65496;50.978;16.998;2022-12-18T01:22:08;101839.47;;;21.18;40.52
76605;BME280;65496;50.978;16.998;2022-12-18T01:24:34;101838.63;;;21.17;40.36
76605;BME280;65496;50.978;16.998;2022-12-18T01:27:00;101844.97;;;21.18;40.34
76605;BME280;65496;50.978;16.998;2022-12-18T01:29:26;101844.16;;;21.17;40.38
76605;BME280;65496;50.978;16.998;2022-12-18T01:31:54;101842.34;;;21.13;40.01
76605;BME280;65496;50.978;16.998;2022-12-18T01:34:20;101844.16;;;21.17;40.33
76605;BME280;65496;50.978;16.998;2022-12-18T01:36:47;101844.97;;;21.18;40.11
76605;BME280;65496;50.978;16.998;2022-12-18T01:39:14;101838.63;;;21.17;40.26
76605;BME280;65496;50.978;16.998;2022-12-18T01:41:40;101845.28;;;21.16;40.21
76605;BME280;65496;50.978;16.998;2022-12-18T01:50:24;101837.81;;;21.17;40.04
76605;BME280;65496;50.978;16.998;2022-12-18T01:53:05;101842.50;;;21.16;40.17
76605;BME280;65496;50.978;16.998;2022-12-18T01:55:37;101846.91;;;21.17;40.14
76605;BME280;65496;50.978;16.998;2022-12-18T01:58:06;101852.75;;;21.16;40.01
76605;BME280;65496;50.978;16.998;2022-12-18T02:00:32;101852.41;;;21.17;40.04
76605;BME280;65496;50.978;16.998;2022-12-18T02:02:59;101860.69;;;21.17;40.20
76605;BME280;65496;50.978;16.998;2022-12-18T02:05:34;101855.16;;;21.17;40.06
76605;BME280;65496;50.978;16.998;2022-12-18T02:08:27;101859.03;;;21.16;40.09
76605;BME280;65496;50.978;16.998;2022-12-18T02:14:28;101866.19;;;21.17;40.05
76605;BME280;65496;50.978;16.998;2022-12-18T02:22:25;101870.88;;;21.17;39.88
76605;BME280;65496;50.978;16.998;2022-12-18T02:25:10;101847.06;;;20.99;39.99
76605;BME280;65496;50.978;16.998;2022-12-18T02:27:39;101869.09;;;21.12;40.02
76605;BME280;65496;50.978;16.998;2022-12-18T02:30:07;101877.22;;;21.17;39.87
76605;BME280;65496;50.978;16.998;2022-12-18T02:32:37;101884.16;;;21.15;39.80
76605;BME280;65496;50.978;16.998;2022-12-18T02:35:08;101882.72;;;21.17;39.84
76605;BME280;65496;50.978;16.998;2022-12-18T02:37:36;101890.97;;;21.17;39.72
76605;BME280;65496;50.978;16.998;2022-12-18T02:40:05;101898.41;;;21.17;39.60
76605;BME280;65496;50.978;16.998;2022-12-18T02:42:32;101895.66;;;21.17;39.48
76605;BME280;65496;50.978;16.998;2022-12-18T02:44:58;101903.13;;;21.16;39.81
76605;BME280;65496;50.978;16.998;2022-12-18T02:47:29;101893.72;;;21.17;39.68
76605;BME280;65496;50.978;16.998;2022-12-18T02:50:22;101894.56;;;21.18;39.83
76605;BME280;65496;50.978;16.998;2022-12-18T02:56:20;101898.41;;;21.17;39.67
76605;BME280;65496;50.978;16.998;2022-12-18T02:59:07;101900.06;;;21.18;39.79
76605;BME280;65496;50.978;16.998;2022-12-18T03:02:04;101905.56;;;21.18;39.64
76605;BME280;65496;50.978;16.998;2022-12-18T03:04:45;101893.31;;;21.10;39.71
76605;BME280;65496;50.978;16.998;2022-12-18T03:07:19;101893.72;;;21.17;39.77
76605;BME280;65496;50.978;16.998;2022-12-18T03:09:49;101896.19;;;21.19;39.44
76605;BME280;65496;50.978;16.998;2022-12-18T03:15:18;101895.38;;;21.18;39.58
76605;BME280;65496;50.978;16.998;2022-12-18T03:17:56;101896.47;;;21.17;39.78
76605;BME280;65496;50.978;16.998;2022-12-18T03:20:25;101893.72;;;21.17;39.49
76605;BME280;65496;50.978;16.998;2022-12-18T03:22:59;101897.94;;;21.15;39.45
76605;BME280;65496;50.978;16.998;2022-12-18T03:25:28;101901.69;;;21.19;39.34
76605;BME280;65496;50.978;16.998;2022-12-18T03:27:58;101907.50;;;21.17;39.56
76605;BME280;65496;50.978;16.998;2022-12-18T03:30:28;101905.09;;;21.16;39.43
76605;BME280;65496;50.978;16.998;2022-12-18T03:33:18;101910.25;;;21.17;39.54
76605;BME280;65496;50.978;16.998;2022-12-18T03:35:45;101911.06;;;21.18;39.54
76605;BME280;65496;50.978;16.998;2022-12-18T03:38:12;101918.53;;;21.17;39.40
76605;BME280;65496;50.978;16.998;2022-12-18T03:43:20;101919.34;;;21.18;39.41
76605;BME280;65496;50.978;16.998;2022-12-18T03:45:54;101920.78;;;21.15;39.41
76605;BME280;65496;50.978;16.998;2022-12-18T03:48:37;101922.41;;;21.16;39.38
76605;BME280;65496;50.978;16.998;2022-12-18T03:51:12;101934.22;;;21.17;39.27
76605;BME280;65496;50.978;16.998;2022-12-18T03:53:46;101935.38;;;21.16;39.40
76605;BME280;65496;50.978;16.998;2022-12-18T03:56:16;101938.91;;;21.16;39.35
76605;BME280;65496;50.978;16.998;2022-12-18T03:58:43;101941.69;;;21.16;39.38
76605;BME280;65496;50.978;16.998;2022-12-18T04:01:13;101949.16;;;21.16;39.32
76605;BME280;65496;50.978;16.998;2022-12-18T04:03:42;101954.66;;;21.16;39.19
76605;BME280;65496;50.978;16.998;2022-12-18T04:06:09;101952.84;;;21.11;39.29
76605;BME280;65496;50.978;16.998;2022-12-18T04:08:36;101947.81;;;21.13;39.14
76605;BME280;65496;50.978;16.998;2022-12-18T04:11:04;101955.44;;;21.16;39.23
76605;BME280;65496;50.978;16.998;2022-12-18T04:13:36;101954.66;;;21.16;39.23
76605;BME280;65496;50.978;16.998;2022-12-18T04:16:02;101949.16;;;21.16;39.18
76605;BME280;65496;50.978;16.998;2022-12-18T04:18:28;101945.06;;;21.13;39.21
76605;BME280;65496;50.978;16.998;2022-12-18T04:20:54;101949.75;;;21.13;39.20
76605;BME280;65496;50.978;16.998;2022-12-18T04:23:20;101962.94;;;21.16;39.09
76605;BME280;65496;50.978;16.998;2022-12-18T04:25:47;101948.41;;;21.10;39.16
76605;BME280;65496;50.978;16.998;2022-12-18T04:28:13;101962.09;;;21.15;39.18
76605;BME280;65496;50.978;16.998;2022-12-18T04:30:39;101963.72;;;21.16;38.97
76605;BME280;65496;50.978;16.998;2022-12-18T04:33:13;101962.09;;;21.15;39.15
76605;BME280;65496;50.978;16.998;2022-12-18T04:35:41;101958.19;;;21.16;39.11
76605;BME280;65496;50.978;16.998;2022-12-18T04:38:08;101956.59;;;21.15;38.96
76605;BME280;65496;50.978;16.998;2022-12-18T04:40:36;101957.72;;;21.14;39.02
76605;BME280;65496;50.978;16.998;2022-12-18T04:43:03;101960.97;;;21.16;38.79
76605;BME280;65496;50.978;16.998;2022-12-18T04:45:32;101956.41;;;21.12;39.00
76605;BME280;65496;50.978;16.998;2022-12-18T04:48:00;101964.53;;;21.17;38.97
76605;BME280;65496;50.978;16.998;2022-12-18T04:50:27;101957.22;;;21.12;39.01
76605;BME280;65496;50.978;16.998;2022-12-18T04:52:53;101957.31;;;21.07;38.91
76605;BME280;65496;50.978;16.998;2022-12-18T04:55:19;101980.56;;;21.15;38.85
76605;BME280;65496;50.978;16.998;2022-12-18T04:57:45;101976.38;;;21.17;38.81
76605;BME280;65496;50.978;16.998;2022-12-18T05:00:12;101981.06;;;21.17;39.02
76605;BME280;65496;50.978;16.998;2022-12-18T05:02:38;101987.38;;;21.17;38.90
76605;BME280;65496;50.978;16.998;2022-12-18T05:05:05;101985.44;;;21.18;38.70
76605;BME280;65496;50.978;16.998;2022-12-18T05:07:31;101995.66;;;21.17;38.81
76605;BME280;65496;50.978;16.998;2022-12-18T05:09:57;101994.53;;;21.18;38.74
76605;BME280;65496;50.978;16.998;2022-12-18T05:12:23;101993.72;;;21.18;38.82
76605;BME280;65496;50.978;16.998;2022-12-18T05:14:49;102003.91;;;21.17;38.81
76605;BME280;65496;50.978;16.998;2022-12-18T05:17:15;101995.66;;;21.17;38.77
76605;BME280;65496;50.978;16.998;2022-12-18T05:19:41;102003.91;;;21.17;38.77
76605;BME280;65496;50.978;16.998;2022-12-18T05:22:07;101995.97;;;21.16;38.74
76605;BME280;65496;50.978;16.998;2022-12-18T05:24:33;102001.16;;;21.17;38.64
76605;BME280;65496;50.978;16.998;2022-12-18T05:26:59;102004.72;;;21.18;38.73
76605;BME280;65496;50.978;16.998;2022-12-18T05:29:25;102006.66;;;21.17;38.65
76605;BME280;65496;50.978;16.998;2022-12-18T05:31:52;102002.91;;;21.13;38.67
76605;BME280;65496;50.978;16.998;2022-12-18T05:34:18;102014.09;;;21.17;38.67
76605;BME280;65496;50.978;16.998;2022-12-18T05:36:44;102018.81;;;21.16;38.69
76605;BME280;65496;50.978;16.998;2022-12-18T05:39:10;102024.31;;;21.16;38.84
76605;BME280;65496;50.978;16.998;2022-12-18T05:41:36;102029.81;;;21.16;38.29
76605;BME280;65496;50.978;16.998;2022-12-18T05:44:02;102028.22;;;21.15;38.58
76605;BME280;65496;50.978;16.998;2022-12-18T05:46:28;102021.06;;;21.14;38.64
76605;BME280;65496;50.978;16.998;2022-12-18T05:48:55;102022.72;;;21.15;38.64
76605;BME280;65496;50.978;16.998;2022-12-18T05:51:22;102026.88;;;21.13;38.54
76605;BME280;65496;50.978;16.998;2022-12-18T05:53:48;102026.28;;;21.16;38.63
76605;BME280;65496;50.978;16.998;2022-12-18T05:56:18;102033.72;;;21.15;38.35
76605;BME280;65496;50.978;16.998;2022-12-18T05:58:44;102030.16;;;21.15;38.59
76605;BME280;65496;50.978;16.998;2022-12-18T06:03:38;102038.72;;;21.13;38.41
76605;BME280;65496;50.978;16.998;2022-12-18T06:06:13;102034.84;;;21.14;38.35
76605;BME280;65496;50.978;16.998;2022-12-18T06:08:39;102043.09;;;21.14;38.36
76605;BME280;65496;50.978;16.998;2022-12-18T06:11:05;102042.28;;;21.14;38.50
76605;BME280;65496;50.978;16.998;2022-12-18T06:13:31;102043.09;;;21.14;38.45
76605;BME280;65496;50.978;16.998;2022-12-18T06:15:57;102040.34;;;21.14;38.53
76605;BME280;65496;50.978;16.998;2022-12-18T06:18:23;102043.09;;;21.14;38.41
76605;BME280;65496;50.978;16.998;2022-12-18T06:20:56;102055.75;;;21.15;38.50
76605;BME280;65496;50.978;16.998;2022-12-18T06:23:22;102054.13;;;21.14;38.46
76605;BME280;65496;50.978;16.998;2022-12-18T06:25:48;102058.50;;;21.15;38.61
76605;BME280;65496;50.978;16.998;2022-12-18T06:28:14;102060.44;;;21.15;38.43
76605;BME280;65496;50.978;16.998;2022-12-18T06:30:43;102064.31;;;21.14;38.45
76605;BME280;65496;50.978;16.998;2022-12-18T06:33:09;102066.78;;;21.15;38.48
76605;BME280;65496;50.978;16.998;2022-12-18T06:35:36;102063.50;;;21.13;38.46
76605;BME280;65496;50.978;16.998;2022-12-18T06:38:02;102066.78;;;21.15;38.39
76605;BME280;65496;50.978;16.998;2022-12-18T06:40:28;102075.03;;;21.15;38.47
76605;BME280;65496;50.978;16.998;2022-12-18T06:42:54;102083.31;;;21.15;38.47
76605;BME280;65496;50.978;16.998;2022-12-18T06:45:21;102086.06;;;21.15;38.42
76605;BME280;65496;50.978;16.998;2022-12-18T06:47:46;102099.84;;;21.15;38.33
76605;BME280;65496;50.978;16.998;2022-12-18T06:50:13;102083.31;;;21.15;38.50
76605;BME280;65496;50.978;16.998;2022-12-18T06:52:39;102089.63;;;21.16;38.33
76605;BME280;65496;50.978;16.998;2022-12-18T06:55:10;102096.75;;;21.17;38.41
76605;BME280;65496;50.978;16.998;2022-12-18T06:57:37;102098.69;;;21.16;38.43
76605;BME280;65496;50.978;16.998;2022-12-18T07:00:05;102094.81;;;21.17;38.36
76605;BME280;65496;50.978;16.998;2022-12-18T07:02:32;102095.94;;;21.16;38.52
76605;BME280;65496;50.978;16.998;2022-12-18T07:04:58;102097.56;;;21.17;38.49
76605;BME280;65496;50.978;16.998;2022-12-18T07:07:24;102092.06;;;21.17;38.62
76605;BME280;65496;50.978;16.998;2022-12-18T07:09:51;102103.06;;;21.17;38.66
76605;BME280;65496;50.978;16.998;2022-12-18T07:12:17;102116.84;;;21.17;38.78
76605;BME280;65496;50.978;16.998;2022-12-18T07:14:43;102116.84;;;21.17;38.88
76605;BME280;65496;50.978;16.998;2022-12-18T07:17:09;102121.88;;;21.15;38.83
76605;BME280;65496;50.978;16.998;2022-12-18T07:19:35;102125.13;;;21.17;38.88
76605;BME280;65496;50.978;16.998;2022-12-18T07:22:01;102129.31;;;21.15;38.96
76605;BME280;65496;50.978;16.998;2022-12-18T07:24:27;102115.84;;;21.13;38.93
76605;BME280;65496;50.978;16.998;2022-12-18T07:26:53;102128.97;;;21.16;39.06
76605;BME280;65496;50.978;16.998;2022-12-18T07:29:20;102129.81;;;21.17;39.00
76605;BME280;65496;50.978;16.998;2022-12-18T07:31:46;102136.94;;;21.18;39.08
76605;BME280;65496;50.978;16.998;2022-12-18T07:34:13;102140.00;;;21.16;39.18
76605;BME280;65496;50.978;16.998;2022-12-18T07:36:40;102141.66;;;21.17;39.11
76605;BME280;65496;50.978;16.998;2022-12-18T07:39:07;102147.97;;;21.18;39.23
76605;BME280;65496;50.978;16.998;2022-12-18T07:41:33;102153.47;;;21.18;39.18
76605;BME280;65496;50.978;16.998;2022-12-18T07:43:59;102162.84;;;21.17;39.31
76605;BME280;65496;50.978;16.998;2022-12-18T07:46:25;102161.25;;;21.16;39.14
76605;BME280;65496;50.978;16.998;2022-12-18T07:48:51;102156.53;;;21.16;39.17
76605;BME280;65496;50.978;16.998;2022-12-18T07:51:18;102165.63;;;21.17;39.14
76605;BME280;65496;50.978;16.998;2022-12-18T07:53:44;102165.63;;;21.17;39.20
76605;BME280;65496;50.978;16.998;2022-12-18T07:56:11;102158.50;;;21.16;39.24
76605;BME280;65496;50.978;16.998;2022-12-18T07:58:38;102159.81;;;21.18;39.37
76605;BME280;65496;50.978;16.998;2022-12-18T08:01:09;102162.28;;;21.20;39.35
76605;BME280;65496;50.978;16.998;2022-12-18T08:03:36;102149.41;;;21.15;39.60
76605;BME280;65496;50.978;16.998;2022-12-18T08:06:05;102161.94;;;21.21;39.68
76605;BME280;65496;50.978;16.998;2022-12-18T08:08:33;102164.41;;;21.23;39.96
76605;BME280;65496;50.978;16.998;2022-12-18T08:10:59;102175.09;;;21.24;40.08
76605;BME280;65496;50.978;16.998;2022-12-18T08:13:26;102172.06;;;21.26;39.95
76605;BME280;65496;50.978;16.998;2022-12-18T08:16:00;102175.63;;;21.26;40.13
76605;BME280;65496;50.978;16.998;2022-12-18T08:18:27;102172.97;;;21.21;40.22
76605;BME280;65496;50.978;16.998;2022-12-18T08:20:54;102187.13;;;21.28;40.04
76605;BME280;65496;50.978;16.998;2022-12-18T08:23:20;102189.06;;;21.28;39.92
76605;BME280;65496;50.978;16.998;2022-12-18T08:25:46;102191.84;;;21.28;39.81
76605;BME280;65496;50.978;16.998;2022-12-18T08:28:13;102191.53;;;21.29;39.86
76605;BME280;65496;50.978;16.998;2022-12-18T08:30:39;102195.13;;;21.30;39.72
76605;BME280;65496;50.978;16.998;2022-12-18T08:33:05;102189.91;;;21.28;39.70
76605;BME280;65496;50.978;16.998;2022-12-18T08:35:35;102187.47;;;21.27;39.73
76605;BME280;65496;50.978;16.998;2022-12-18T08:38:02;102197.56;;;21.31;39.68
76605;BME280;65496;50.978;16.998;2022-12-18T08:40:29;102201.94;;;21.32;39.57
76605;BME280;65496;50.978;16.998;2022-12-18T08:42:55;102211.84;;;21.33;39.49
76605;BME280;65496;50.978;16.998;2022-12-18T08:45:47;102210.19;;;21.32;39.38
76605;BME280;65496;50.978;16.998;2022-12-18T08:48:14;102208.47;;;21.36;39.28
76605;BME280;65496;50.978;16.998;2022-12-18T08:50:40;102208.19;;;21.38;39.16
76605;BME280;65496;50.978;16.998;2022-12-18T08:53:06;102204.41;;;21.34;39.22
76605;BME280;65496;50.978;16.998;2022-12-18T08:55:32;102220.84;;;21.39;39.01
76605;BME280;65496;50.978;16.998;2022-12-18T08:57:58;102206.63;;;21.32;38.86
76605;BME280;65496;50.978;16.998;2022-12-18T09:00:24;102216.94;;;21.40;38.78
76605;BME280;65496;50.978;16.998;2022-12-18T09:02:50;102215.00;;;21.41;38.77
76605;BME280;65496;50.978;16.998;2022-12-18T09:05:16;102216.94;;;21.40;38.59
76605;BME280;65496;50.978;16.998;2022-12-18T09:07:43;102222.16;;;21.42;38.51
76605;BME280;65496;50.978;16.998;2022-12-18T09:10:11;102214.38;;;21.44;38.46
76605;BME280;65496;50.978;16.998;2022-12-18T09:12:42;102212.44;;;21.44;38.40
76605;BME280;65496;50.978;16.998;2022-12-18T09:15:09;102197.84;;;21.44;38.34
76605;BME280;65496;50.978;16.998;2022-12-18T09:17:35;102190.41;;;21.44;38.04
76605;BME280;65496;50.978;16.998;2022-12-18T09:20:01;102191.22;;;21.45;37.99
76605;BME280;65496;50.978;16.998;2022-12-18T09:22:27;102183.47;;;21.47;37.79
76605;BME280;65496;50.978;16.998;2022-12-18T09:24:53;102173.25;;;21.47;37.97
76605;BME280;65496;50.978;16.998;2022-12-18T09:27:19;102171.31;;;21.48;37.79
76605;BME280;65496;50.978;16.998;2022-12-18T09:29:45;102174.06;;;21.48;37.45
76605;BME280;65496;50.978;16.998;2022-12-18T09:32:11;102163.03;;;21.48;37.43
76605;BME280;65496;50.978;16.998;2022-12-18T09:34:37;102151.53;;;21.46;37.55
76605;BME280;65496;50.978;16.998;2022-12-18T09:37:03;102158.34;;;21.48;37.55
76605;BME280;65496;50.978;16.998;2022-12-18T09:39:29;102147.03;;;21.50;37.53
76605;BME280;65496;50.978;16.998;2022-12-18T09:41:57;102147.03;;;21.50;37.58
76605;BME280;65496;50.978;16.998;2022-12-18T09:44:50;102148.66;;;21.51;37.52
76605;BME280;65496;50.978;16.998;2022-12-18T09:47:30;102134.47;;;21.44;37.47
76605;BME280;65496;50.978;16.998;2022-12-18T09:50:02;102149.97;;;21.53;38.04
76605;BME280;65496;50.978;16.998;2022-12-18T09:52:35;102153.94;;;21.61;37.99
76605;BME280;65496;50.978;16.998;2022-12-18T09:55:44;102159.53;;;21.69;37.79
76605;BME280;65496;50.978;16.998;2022-12-18T10:00:43;102145.81;;;21.78;37.67
76605;BME280;65496;50.978;16.998;2022-12-18T10:03:12;102154.59;;;21.80;38.11
76605;BME280;65496;50.978;16.998;2022-12-18T10:08:05;102156.72;;;21.83;38.39
76605;BME280;65496;50.978;16.998;2022-12-18T10:10:53;102158.38;;;21.84;38.46
76605;BME280;65496;50.978;16.998;2022-12-18T10:26:48;102164.84;;;21.66;39.83
76605;BME280;65496;50.978;16.998;2022-12-18T10:29:16;102161.66;;;21.72;39.40
76605;BME280;65496;50.978;16.998;2022-12-18T10:31:42;102176.47;;;21.76;38.98
76605;BME280;65496;50.978;16.998;2022-12-18T10:34:11;102166.75;;;21.79;39.92
76605;BME280;65496;50.978;16.998;2022-12-18T10:36:37;102160.81;;;21.85;39.01
76605;BME280;65496;50.978;16.998;2022-12-18T10:39:24;102170.91;;;21.90;40.48
76605;BME280;65496;50.978;16.998;2022-12-18T10:42:10;102168.88;;;21.96;40.76
76605;BME280;65496;50.978;16.998;2022-12-18T10:44:37;102165.81;;;21.97;40.61
76605;BME280;65496;50.978;16.998;2022-12-18T10:47:06;102163.56;;;21.99;40.55
76605;BME280;65496;50.978;16.998;2022-12-18T10:49:33;102150.88;;;21.98;40.57
76605;BME280;65496;50.978;16.998;2022-12-18T10:52:21;102147.19;;;22.03;39.88
76605;BME280;65496;50.978;16.998;2022-12-18T10:54:51;102143.44;;;21.99;39.85
76605;BME280;65496;50.978;16.998;2022-12-18T10:57:36;102159.03;;;22.03;39.73
76605;BME280;65496;50.978;16.998;2022-12-18T11:02:47;102163.09;;;22.06;39.40
76605;BME280;65496;50.978;16.998;2022-12-18T11:05:32;102165.56;;;22.07;39.28
76605;BME280;65496;50.978;16.998;2022-12-18T11:07:59;102163.94;;;22.06;39.36
76605;BME280;65496;50.978;16.998;2022-12-18T11:10:31;102163.94;;;22.06;39.07
76605;BME280;65496;50.978;16.998;2022-12-18T11:13:12;102163.25;;;22.01;38.81
76605;BME280;65496;50.978;16.998;2022-12-18T11:15:41;102161.69;;;22.08;38.74
76605;BME280;65496;50.978;16.998;2022-12-18T11:18:34;102171.56;;;22.09;38.88
76605;BME280;65496;50.978;16.998;2022-12-18T11:21:09;102194.16;;;22.11;39.47
76605;BME280;65496;50.978;16.998;2022-12-18T11:23:37;102196.59;;;22.13;39.47
76605;BME280;65496;50.978;16.998;2022-12-18T11:26:10;102190.78;;;22.14;39.29
76605;BME280;65496;50.978;16.998;2022-12-18T11:28:52;102190.78;;;22.14;39.26
76605;BME280;65496;50.978;16.998;2022-12-18T11:31:33;102196.28;;;22.14;38.91
76605;BME280;65496;50.978;16.998;2022-12-18T11:34:26;102189.66;;;22.15;39.50
76605;BME280;65496;50.978;16.998;2022-12-18T11:36:54;102189.66;;;22.15;39.29
76605;BME280;65496;50.978;16.998;2022-12-18T11:39:45;102193.22;;;22.16;38.90
76605;BME280;65496;50.978;16.998;2022-12-18T11:42:34;102184.97;;;22.16;39.04
76605;BME280;65496;50.978;16.998;2022-12-18T11:45:17;102176.78;;;22.11;39.08
76605;BME280;65496;50.978;16.998;2022-12-18T11:48:02;102168.41;;;22.16;38.83
76605;BME280;65496;50.978;16.998;2022-12-18T11:50:46;102162.06;;;22.15;38.57
76605;BME280;65496;50.978;16.998;2022-12-18T11:53:14;102164.50;;;22.17;38.35
76605;BME280;65496;50.978;16.998;2022-12-18T11:55:56;102158.19;;;22.16;38.87
76605;BME280;65496;50.978;16.998;2022-12-18T12:01:18;102155.09;;;22.18;38.63
76605;BME280;65496;50.978;16.998;2022-12-18T12:07:07;102157.56;;;22.19;38.93
76605;BME280;65496;50.978;16.998;2022-12-18T12:12:39;102146.69;;;22.23;39.20
76605;BME280;65496;50.978;16.998;2022-12-18T12:15:36;102133.72;;;22.23;38.36
76605;BME280;65496;50.978;16.998;2022-12-18T12:26:17;102151.66;;;22.12;40.00
76605;BME280;65496;50.978;16.998;2022-12-18T12:31:32;102143.56;;;22.16;39.88
76605;BME280;65496;50.978;16.998;2022-12-18T12:34:41;102146.69;;;22.23;40.15
76605;BME280;65496;50.978;16.998;2022-12-18T12:40:01;102140.09;;;22.32;39.68
76605;BME280;65496;50.978;16.998;2022-12-18T12:42:41;102146.63;;;22.37;39.50
76605;BME280;65496;50.978;16.998;2022-12-18T12:45:46;102143.25;;;22.40;39.56
76605;BME280;65496;50.978;16.998;2022-12-18T12:48:49;102154.06;;;22.36;38.84
76605;BME280;65496;50.978;16.998;2022-12-18T12:51:21;102148.13;;;21.62;37.16
76605;BME280;65496;50.978;16.998;2022-12-18T12:53:49;102158.06;;;21.22;36.74
76605;BME280;65496;50.978;16.998;2022-12-18T12:56:18;102153.97;;;21.06;36.41
76605;BME280;65496;50.978;16.998;2022-12-18T13:01:39;102127.47;;;20.97;37.97
76605;BME280;65496;50.978;16.998;2022-12-18T13:04:34;102155.28;;;21.36;38.07
76605;BME280;65496;50.978;16.998;2022-12-18T13:07:06;102155.28;;;21.50;37.98
76605;BME280;65496;50.978;16.998;2022-12-18T13:15:42;102146.03;;;21.81;37.54
76605;BME280;65496;50.978;16.998;2022-12-18T13:20:36;102154.34;;;21.90;37.36
76605;BME280;65496;50.978;16.998;2022-12-18T13:25:51;102143.88;;;21.92;37.62
76605;BME280;65496;50.978;16.998;2022-12-18T13:30:51;102141.50;;;21.99;37.58
76605;BME280;65496;50.978;16.998;2022-12-18T13:38:38;102157.22;;;21.99;37.95
76605;BME280;65496;50.978;16.998;2022-12-18T13:43:45;102161.63;;;22.00;37.47
76605;BME280;65496;50.978;16.998;2022-12-18T13:46:29;102168.78;;;22.01;37.90
76605;BME280;65496;50.978;16.998;2022-12-18T13:51:44;102189.66;;;20.98;37.87
76605;BME280;65496;50.978;16.998;2022-12-18T13:54:34;102185.91;;;21.07;38.28
76605;BME280;65496;50.978;16.998;2022-12-18T13:57:01;102177.84;;;21.24;38.99
76605;BME280;65496;50.978;16.998;2022-12-18T13:59:35;102186.31;;;21.42;39.07
76605;BME280;65496;50.978;16.998;2022-12-18T14:02:21;102183.88;;;21.54;38.85
76605;BME280;65496;50.978;16.998;2022-12-18T14:04:49;102194.16;;;21.62;39.12
76605;BME280;65496;50.978;16.998;2022-12-18T14:07:21;102187.72;;;21.66;38.95
76605;BME280;65496;50.978;16.998;2022-12-18T14:10:00;102185.03;;;21.75;38.61
76605;BME280;65496;50.978;16.998;2022-12-18T14:12:30;102176.97;;;21.78;38.40
76605;BME280;65496;50.978;16.998;2022-12-18T14:18:26;102199.72;;;21.84;38.32
76605;BME280;65496;50.978;16.998;2022-12-18T14:20:57;102194.84;;;21.81;38.33
76605;BME280;65496;50.978;16.998;2022-12-18T14:23:40;102211.88;;;21.83;38.09
76605;BME280;65496;50.978;16.998;2022-12-18T14:26:27;102200.22;;;21.86;37.70
76605;BME280;65496;50.978;16.998;2022-12-18T14:31:25;102217.59;;;21.86;37.98
76605;BME280;65496;50.978;16.998;2022-12-18T14:33:53;102230.75;;;21.90;37.81
76605;BME280;65496;50.978;16.998;2022-12-18T14:36:24;102227.50;;;21.88;37.78
76605;BME280;65496;50.978;16.998;2022-12-18T14:38:58;102225.88;;;21.86;37.99
76605;BME280;65496;50.978;16.998;2022-12-18T14:41:25;102224.75;;;21.88;37.99